Time;durP1;ratioP1;P1;durP2;ratioP2;P2;SDS_P1;SDS_P2;PMS_P1;PMS_P2;Temp;Humidity;BMP_temperature;BMP_pressure;BME280_temperature;BME280_humidity;BME280_pressure;Samples;Min_cycle;Max_cycle;Signal;HPM_P1;HPM_P2
2024/01/04 00:00:25;;;;;;;6.50;5.07;;;;;;;7.39;69.03;94205.44;5074434;28;20240;-76
2024/01/04 00:02:51;;;;;;;8.33;5.93;;;;;;;7.32;69.34;94212.25;5073536;28;20303;-73
2024/01/04 00:05:18;;;;;;;8.40;5.40;;;;;;;7.40;69.01;94206.25;5073882;28;20373;-70
2024/01/04 00:07:43;;;;;;;7.10;5.10;;;;;;;7.50;68.79;94202.56;5075866;28;20181;-76
2024/01/04 00:10:09;;;;;;;7.23;4.80;;;;;;;7.55;68.60;94217.00;5079199;28;20318;-75
2024/01/04 00:12:38;;;;;;;7.60;5.10;;;;;;;7.63;68.37;94207.41;5076175;28;20220;-75
2024/01/04 00:15:04;;;;;;;7.67;5.73;;;;;;;7.59;68.34;94202.63;5072079;28;20212;-76
2024/01/04 00:17:30;;;;;;;6.53;4.87;;;;;;;7.55;68.49;94215.19;5074285;28;20229;-80
2024/01/04 00:19:58;;;;;;;5.40;4.33;;;;;;;7.55;68.07;94220.44;5074472;28;20406;-73
2024/01/04 00:22:24;;;;;;;6.83;4.57;;;;;;;7.59;68.20;94211.31;5073506;28;20184;-73
2024/01/04 00:24:49;;;;;;;5.37;4.60;;;;;;;7.62;68.27;94202.34;5070635;28;20212;-75
2024/01/04 00:27:18;;;;;;;5.83;4.70;;;;;;;7.50;68.12;94199.97;5061739;28;20325;-71
2024/01/04 00:29:46;;;;;;;7.37;5.17;;;;;;;7.54;68.38;94199.66;5061543;28;20225;-71
2024/01/04 00:32:17;;;;;;;6.47;4.67;;;;;;;7.44;68.56;94205.00;5052629;28;20231;-75
2024/01/04 00:34:46;;;;;;;6.87;4.93;;;;;;;7.37;68.59;94203.94;5070566;28;20192;-75
2024/01/04 00:37:11;;;;;;;7.37;5.17;;;;;;;7.44;68.39;94203.19;5061751;28;20225;-70
2024/01/04 00:39:37;;;;;;;7.30;4.73;;;;;;;7.38;68.14;94188.13;5070696;28;20231;-73
2024/01/04 00:42:04;;;;;;;5.70;4.57;;;;;;;7.43;68.35;94206.78;5070158;28;20286;-74
2024/01/04 00:44:29;;;;;;;8.07;5.10;;;;;;;7.40;68.42;94196.59;5055095;28;20213;-73
2024/01/04 00:46:55;;;;;;;6.20;5.13;;;;;;;7.28;68.75;94216.97;5073858;28;20260;-73
2024/01/04 00:49:26;;;;;;;5.00;4.50;;;;;;;7.24;69.14;94214.78;5071150;28;20181;-73
2024/01/04 00:51:52;;;;;;;6.80;5.07;;;;;;;7.27;68.85;94210.09;5070882;28;20244;-78
2024/01/04 00:54:23;;;;;;;6.53;5.20;;;;;;;7.29;68.63;94209.94;5072305;28;20312;-72
2024/01/04 00:56:49;;;;;;;7.10;4.83;;;;;;;7.26;68.98;94205.81;5059014;28;20232;-82
2024/01/04 00:59:34;;;;;;;9.00;4.83;;;;;;;7.17;69.04;94226.84;5067482;28;20221;-76
2024/01/04 01:01:59;;;;;;;6.47;5.10;;;;;;;7.17;69.07;94232.06;5071967;28;20176;-75
2024/01/04 01:04:25;;;;;;;7.23;4.70;;;;;;;7.08;69.94;94228.53;5070644;28;20243;-76
2024/01/04 01:06:50;;;;;;;7.67;5.37;;;;;;;7.10;69.52;94228.41;5072705;28;20221;-75
2024/01/04 01:09:16;;;;;;;6.23;4.93;;;;;;;7.13;69.19;94222.88;5074939;28;20250;-73
2024/01/04 01:11:41;;;;;;;6.30;4.47;;;;;;;7.13;69.26;94215.03;5068235;28;20275;-76
2024/01/04 01:14:08;;;;;;;9.20;5.77;;;;;;;7.09;69.36;94224.16;5073632;28;20196;-82
2024/01/04 01:16:42;;;;;;;5.97;4.60;;;;;;;7.11;68.95;94216.97;5066163;28;20232;-71
2024/01/04 01:19:08;;;;;;;6.77;4.93;;;;;;;7.11;69.11;94215.19;5068351;28;20365;-72
2024/01/04 01:21:33;;;;;;;7.60;5.43;;;;;;;6.99;68.86;94214.59;5074972;28;20228;-70
2024/01/04 01:23:59;;;;;;;7.77;6.17;;;;;;;7.00;69.08;94226.69;5072293;28;20220;-73
2024/01/04 01:26:27;;;;;;;7.87;5.37;;;;;;;6.89;69.34;94219.06;5072652;28;20216;-71
2024/01/04 01:28:52;;;;;;;7.47;6.73;;;;;;;6.81;69.49;94232.06;5062068;28;20188;-72
2024/01/04 01:31:18;;;;;;;9.33;6.00;;;;;;;6.93;69.08;94228.25;5072119;28;20238;-73
2024/01/04 01:33:44;;;;;;;7.57;5.63;;;;;;;6.95;68.98;94228.94;5070530;28;20235;-71
2024/01/04 01:36:10;;;;;;;8.73;6.13;;;;;;;6.92;68.75;94228.41;5070168;28;20335;-73
2024/01/04 01:38:35;;;;;;;7.03;6.33;;;;;;;6.95;68.98;94228.09;5073177;28;20303;-73
2024/01/04 01:41:27;;;;;;;7.93;6.40;;;;;;;6.92;68.64;94229.22;5064088;28;20189;-74
2024/01/04 01:43:55;;;;;;;7.73;5.90;;;;;;;7.04;68.52;94220.19;4969110;28;20191;-73
2024/01/04 01:46:21;;;;;;;7.80;6.50;;;;;;;6.94;68.70;94226.47;4971478;28;20232;-71
2024/01/04 01:48:47;;;;;;;7.87;5.90;;;;;;;6.98;68.45;94227.81;4966394;28;20234;-76
2024/01/04 01:51:15;;;;;;;6.87;5.87;;;;;;;7.11;68.30;94228.28;4967566;28;20236;-76
2024/01/04 01:53:41;;;;;;;10.13;5.63;;;;;;;7.10;68.11;94233.63;4968018;28;20303;-71
2024/01/04 01:56:10;;;;;;;9.27;5.47;;;;;;;7.21;68.07;94246.47;4970069;28;20211;-74
2024/01/04 01:58:37;;;;;;;8.10;5.60;;;;;;;7.14;67.78;94238.44;4965286;28;20192;-73
2024/01/04 02:01:09;;;;;;;6.93;5.50;;;;;;;7.20;67.90;94229.97;4984218;28;20227;-72
2024/01/04 02:03:34;;;;;;;7.77;5.27;;;;;;;7.21;67.33;94222.94;4971822;28;20231;-77
2024/01/04 02:06:00;;;;;;;6.83;5.67;;;;;;;7.29;67.28;94231.66;4970253;28;20219;-71
2024/01/04 02:08:26;;;;;;;8.70;5.43;;;;;;;7.32;67.33;94237.56;4966342;28;20224;-77
2024/01/04 02:10:52;;;;;;;6.93;5.30;;;;;;;7.31;66.95;94239.38;4972782;28;20282;-75
2024/01/04 02:13:17;;;;;;;7.03;5.33;;;;;;;7.37;66.95;94227.47;4985153;28;20278;-69
2024/01/04 02:15:43;;;;;;;8.03;5.57;;;;;;;7.36;66.93;94228.47;4969831;28;20357;-73
2024/01/04 02:18:09;;;;;;;5.37;4.53;;;;;;;7.37;66.87;94237.94;4972254;28;20236;-72
2024/01/04 02:20:34;;;;;;;6.40;4.90;;;;;;;7.28;67.30;94240.50;5014532;28;20227;-71
2024/01/04 02:23:00;;;;;;;6.53;5.13;;;;;;;7.43;66.92;94229.47;5073099;28;20193;-70
2024/01/04 02:25:25;;;;;;;7.97;5.40;;;;;;;7.36;67.17;94234.50;5077011;28;20219;-71
2024/01/04 02:27:50;;;;;;;6.90;5.50;;;;;;;7.38;67.27;94231.75;5070299;28;20223;-70
2024/01/04 02:30:16;;;;;;;6.33;5.23;;;;;;;7.33;66.93;94226.16;5074234;28;20346;-70
2024/01/04 02:32:41;;;;;;;6.50;5.50;;;;;;;7.39;66.97;94210.66;5060113;28;20311;-71
2024/01/04 02:35:07;;;;;;;7.67;5.60;;;;;;;7.40;67.00;94206.25;5079554;28;20192;-70
2024/01/04 02:37:33;;;;;;;9.80;5.67;;;;;;;7.44;66.69;94197.97;5071620;28;20339;-70
2024/01/04 02:39:58;;;;;;;6.83;5.30;;;;;;;7.28;67.25;94169.06;5072582;28;20221;-70
2024/01/04 02:42:23;;;;;;;5.97;4.90;;;;;;;7.40;66.86;94188.75;5073208;28;20216;-71
2024/01/04 02:44:49;;;;;;;6.20;4.83;;;;;;;7.50;66.39;94189.50;5073801;28;20270;-71
2024/01/04 02:47:14;;;;;;;5.57;4.43;;;;;;;7.48;66.55;94170.53;5077519;28;20292;-71
2024/01/04 02:49:41;;;;;;;5.03;4.47;;;;;;;7.37;67.09;94183.84;5073092;28;20211;-71
2024/01/04 02:52:06;;;;;;;8.07;4.53;;;;;;;7.39;66.98;94184.50;5070457;28;20245;-71
2024/01/04 02:54:32;;;;;;;6.07;4.67;;;;;;;7.34;66.95;94175.50;5079676;28;20220;-70
2024/01/04 02:56:57;;;;;;;5.67;4.50;;;;;;;7.28;67.19;94166.47;5071149;28;20224;-70
2024/01/04 02:59:22;;;;;;;5.43;4.60;;;;;;;7.27;67.29;94173.50;5075093;28;20312;-70
2024/01/04 03:01:48;;;;;;;5.40;4.33;;;;;;;7.27;67.09;94173.50;5072918;28;20218;-70
2024/01/04 03:04:15;;;;;;;5.83;4.60;;;;;;;7.28;67.20;94169.06;5073953;28;20328;-70
2024/01/04 03:06:41;;;;;;;6.00;4.80;;;;;;;7.24;67.32;94171.19;5074262;28;20228;-71
2024/01/04 03:09:07;;;;;;;6.50;4.50;;;;;;;7.13;67.80;94158.34;5071027;28;20232;-71
2024/01/04 03:11:32;;;;;;;5.67;3.87;;;;;;;7.22;67.48;94152.22;5077388;28;20225;-71
2024/01/04 03:13:58;;;;;;;7.33;4.80;;;;;;;7.14;67.54;94149.53;5077897;28;20203;-71
2024/01/04 03:16:23;;;;;;;5.30;4.80;;;;;;;7.05;68.39;94148.63;5074779;28;20602;-71
2024/01/04 03:18:49;;;;;;;6.23;4.60;;;;;;;6.95;68.44;94139.22;5077686;28;20505;-71
2024/01/04 03:21:14;;;;;;;6.67;4.60;;;;;;;7.06;67.99;94147.69;5076374;28;20228;-71
2024/01/04 03:23:40;;;;;;;5.73;4.70;;;;;;;7.04;67.87;94151.41;5076469;28;20212;-71
2024/01/04 03:26:05;;;;;;;6.00;4.97;;;;;;;6.65;69.18;94148.28;5075631;28;20255;-69
2024/01/04 03:28:31;;;;;;;7.07;4.60;;;;;;;6.75;69.42;94155.09;5066706;28;20172;-69
2024/01/04 03:30:56;;;;;;;5.63;4.30;;;;;;;6.91;68.65;94167.47;5071911;28;20225;-70
2024/01/04 03:33:22;;;;;;;6.83;5.27;;;;;;;6.89;68.67;94158.94;5068927;28;20227;-69
2024/01/04 03:35:47;;;;;;;5.37;4.23;;;;;;;6.90;68.62;94168.47;5076849;28;20235;-69
2024/01/04 03:38:12;;;;;;;6.27;4.30;;;;;;;6.91;68.46;94171.88;5074031;28;20235;-70
2024/01/04 03:40:38;;;;;;;6.10;4.60;;;;;;;6.94;68.28;94153.28;5073164;28;20188;-70
2024/01/04 03:43:04;;;;;;;5.97;4.07;;;;;;;6.93;68.03;94142.00;5069443;28;20224;-71
2024/01/04 03:45:30;;;;;;;5.27;4.20;;;;;;;7.01;67.93;94149.09;5073578;28;20246;-71
2024/01/04 03:47:56;;;;;;;10.00;5.27;;;;;;;7.04;67.80;94136.53;5069767;28;20220;-70
2024/01/04 03:50:21;;;;;;;6.27;4.43;;;;;;;7.01;67.85;94147.31;5076574;28;20328;-71
2024/01/04 03:52:47;;;;;;;6.90;4.67;;;;;;;6.91;68.33;94150.97;5074334;28;20231;-70
2024/01/04 03:55:15;;;;;;;7.40;5.20;;;;;;;6.92;68.19;94150.00;5068255;28;20290;-70
2024/01/04 03:57:42;;;;;;;6.47;4.50;;;;;;;7.00;67.88;94150.06;5073687;28;20220;-70
2024/01/04 04:00:09;;;;;;;5.73;4.40;;;;;;;6.92;67.88;94140.34;5075472;28;20221;-70
2024/01/04 04:02:34;;;;;;;7.80;4.77;;;;;;;6.88;68.18;94148.66;5079064;28;20242;-70
2024/01/04 04:04:59;;;;;;;6.43;4.50;;;;;;;6.86;68.20;94161.88;5067581;28;20189;-71
2024/01/04 04:07:25;;;;;;;9.90;4.60;;;;;;;6.88;68.22;94157.31;5075026;28;20188;-70
2024/01/04 04:09:50;;;;;;;6.77;4.70;;;;;;;6.92;67.73;94150.81;5070618;28;20248;-70
2024/01/04 04:12:16;;;;;;;5.43;4.70;;;;;;;6.82;68.29;94132.63;5072908;28;20236;-70
2024/01/04 04:14:42;;;;;;;5.87;4.60;;;;;;;6.85;68.23;94123.66;5075462;28;20216;-70
2024/01/04 04:17:07;;;;;;;5.87;4.43;;;;;;;6.89;68.38;94145.88;5073620;28;20209;-70
2024/01/04 04:19:33;;;;;;;6.97;4.53;;;;;;;6.74;68.65;94143.00;5073948;28;20168;-70
2024/01/04 04:21:58;;;;;;;8.87;4.40;;;;;;;6.85;68.31;94148.00;5068887;28;20236;-69
2024/01/04 04:24:24;;;;;;;6.63;4.93;;;;;;;6.82;68.13;94160.53;5077075;28;20238;-69
2024/01/04 04:26:50;;;;;;;7.07;4.83;;;;;;;6.79;68.68;94142.53;5073852;28;20232;-71
2024/01/04 04:29:15;;;;;;;7.57;4.80;;;;;;;6.81;68.36;94141.41;5072540;28;20235;-71
2024/01/04 04:31:40;;;;;;;6.73;4.93;;;;;;;6.76;68.64;94128.00;5069886;28;20197;-71
2024/01/04 04:34:06;;;;;;;6.83;4.77;;;;;;;6.77;68.43;94141.88;5070940;28;20229;-71
2024/01/04 04:36:32;;;;;;;5.93;4.30;;;;;;;6.71;68.97;94142.47;5067027;28;20242;-71
2024/01/04 04:39:02;;;;;;;5.97;4.33;;;;;;;6.76;68.99;94124.53;5074781;28;20208;-71
2024/01/04 04:41:28;;;;;;;6.67;3.47;;;;;;;6.78;68.44;94143.50;5068695;28;20220;-71
2024/01/04 04:43:53;;;;;;;5.07;3.80;;;;;;;6.74;68.71;94152.63;5073163;28;20180;-71
2024/01/04 04:46:19;;;;;;;5.40;3.53;;;;;;;6.78;68.14;94128.66;5069903;28;20177;-71
2024/01/04 04:48:44;;;;;;;4.17;3.57;;;;;;;6.74;68.47;94142.19;5074121;28;20237;-71
2024/01/04 04:51:10;;;;;;;4.90;3.40;;;;;;;6.79;67.98;94146.00;5071855;28;20229;-71
2024/01/04 04:53:36;;;;;;;6.07;4.30;;;;;;;6.84;68.32;94142.91;5077439;28;20256;-70
2024/01/04 04:56:02;;;;;;;5.27;4.10;;;;;;;6.76;68.54;94132.38;5070771;28;20181;-70
2024/01/04 04:58:29;;;;;;;5.00;3.90;;;;;;;6.73;68.31;94149.19;5071082;28;20236;-70
2024/01/04 05:00:55;;;;;;;4.97;4.30;;;;;;;6.74;68.31;94143.00;5067597;28;20272;-70
2024/01/04 05:03:21;;;;;;;7.07;4.13;;;;;;;6.73;68.04;94143.13;5068576;28;20375;-70
2024/01/04 05:05:46;;;;;;;6.97;4.30;;;;;;;6.62;68.26;94131.94;5070319;28;20264;-71
2024/01/04 05:08:12;;;;;;;6.53;4.70;;;;;;;6.55;68.44;94154.41;5074568;28;20223;-70
2024/01/04 05:10:37;;;;;;;5.80;4.47;;;;;;;6.52;68.76;94141.66;5073333;28;20183;-71
2024/01/04 05:13:03;;;;;;;6.30;4.70;;;;;;;6.57;68.89;94133.34;5073179;28;20216;-70
2024/01/04 05:15:28;;;;;;;7.03;4.70;;;;;;;6.48;69.11;94152.53;5074158;28;20244;-70
2024/01/04 05:17:54;;;;;;;6.53;4.60;;;;;;;6.48;69.33;94149.94;5070369;28;20307;-70
2024/01/04 05:20:19;;;;;;;6.50;4.67;;;;;;;6.54;68.98;94189.31;5068141;28;20224;-70
2024/01/04 05:22:45;;;;;;;5.93;5.13;;;;;;;6.39;69.22;94159.47;5044195;28;20193;-70
2024/01/04 05:25:12;;;;;;;7.77;5.20;;;;;;;6.46;69.56;94170.97;5066312;28;20223;-69
2024/01/04 05:27:38;;;;;;;7.70;6.03;;;;;;;6.27;69.73;94179.72;5067125;28;20213;-70
2024/01/04 05:30:07;;;;;;;8.80;6.23;;;;;;;6.27;69.79;94184.13;5068041;28;20225;-69
2024/01/04 05:32:34;;;;;;;7.53;5.60;;;;;;;6.32;69.60;94156.63;5070518;28;20224;-70
2024/01/04 05:35:00;;;;;;;6.77;5.67;;;;;;;6.26;70.18;94177.28;5069583;28;20243;-70
2024/01/04 05:37:25;;;;;;;7.83;5.90;;;;;;;6.37;69.86;94143.94;5070740;28;20620;-68
2024/01/04 05:39:50;;;;;;;9.47;5.53;;;;;;;6.49;69.64;94155.00;5067073;28;20224;-72
2024/01/04 05:42:16;;;;;;;6.20;4.90;;;;;;;6.51;69.38;94152.25;5071091;28;20227;-70
2024/01/04 05:44:41;;;;;;;6.97;4.90;;;;;;;6.52;69.43;94166.94;5072999;28;20228;-69
2024/01/04 05:47:07;;;;;;;7.63;5.43;;;;;;;6.49;69.38;94157.59;5072435;28;20271;-71
2024/01/04 05:49:32;;;;;;;6.77;5.80;;;;;;;6.46;69.84;94160.50;5074308;28;20181;-70
2024/01/04 05:51:58;;;;;;;8.77;6.13;;;;;;;6.39;69.53;94156.88;5077912;28;20236;-70
2024/01/04 05:54:23;;;;;;;7.37;6.30;;;;;;;6.43;69.67;94154.78;5066446;28;20221;-72
2024/01/04 05:56:49;;;;;;;7.27;5.50;;;;;;;6.53;69.66;94172.03;5071601;28;20224;-70
2024/01/04 05:59:14;;;;;;;9.17;5.53;;;;;;;6.38;69.40;94168.25;5069076;28;20212;-72
2024/01/04 06:01:40;;;;;;;9.40;6.07;;;;;;;6.40;69.34;94148.06;5067718;28;20189;-72
2024/01/04 06:04:05;;;;;;;7.37;4.90;;;;;;;6.32;69.50;94135.72;5073422;28;20303;-71
2024/01/04 06:06:31;;;;;;;6.87;5.30;;;;;;;6.38;69.38;94158.63;5071468;28;20251;-72
2024/01/04 06:08:57;;;;;;;7.80;5.50;;;;;;;6.36;69.62;94178.03;5071201;28;20224;-70
2024/01/04 06:11:22;;;;;;;6.73;5.27;;;;;;;6.29;69.42;94177.81;5071640;28;20221;-72
2024/01/04 06:13:48;;;;;;;7.57;6.13;;;;;;;6.35;69.09;94158.13;5076344;28;20192;-74
2024/01/04 06:16:13;;;;;;;8.43;6.20;;;;;;;6.37;68.95;94172.66;5071208;28;20213;-73
2024/01/04 06:18:39;;;;;;;8.13;5.47;;;;;;;6.33;69.25;94179.13;5076392;28;20232;-72
2024/01/04 06:21:07;;;;;;;9.30;6.40;;;;;;;6.42;69.41;94177.47;5070278;28;20284;-70
2024/01/04 06:23:33;;;;;;;7.23;5.70;;;;;;;6.34;69.70;94156.50;5062577;28;20319;-73
2024/01/04 06:25:59;;;;;;;8.50;5.63;;;;;;;6.43;69.60;94186.13;5068619;28;20216;-73
2024/01/04 06:28:24;;;;;;;7.20;6.00;;;;;;;6.37;69.68;94171.84;5073552;28;20176;-74
2024/01/04 06:30:50;;;;;;;9.07;5.83;;;;;;;6.52;69.77;94182.59;5065946;28;20226;-76
2024/01/04 06:33:16;;;;;;;9.77;6.47;;;;;;;6.70;69.17;94180.00;5072803;28;20266;-74
2024/01/04 06:35:42;;;;;;;9.90;6.00;;;;;;;6.60;69.05;94180.91;5063692;28;20251;-72
2024/01/04 06:38:08;;;;;;;10.80;6.60;;;;;;;6.63;69.09;94170.16;5068302;28;20231;-72
2024/01/04 06:40:38;;;;;;;8.53;5.90;;;;;;;6.71;69.14;94189.47;5069539;28;20212;-71
2024/01/04 06:43:08;;;;;;;11.73;5.83;;;;;;;6.70;69.13;94187.84;5073069;28;20308;-72
2024/01/04 06:45:35;;;;;;;8.37;5.83;;;;;;;6.99;68.32;94178.00;5069503;28;20217;-71
2024/01/04 06:48:00;;;;;;;7.80;5.73;;;;;;;6.95;68.54;94181.06;5069647;28;20209;-73
2024/01/04 06:50:26;;;;;;;9.77;6.07;;;;;;;7.07;68.44;94167.59;5061307;28;20233;-72
2024/01/04 06:52:51;;;;;;;9.77;6.87;;;;;;;7.07;68.42;94166.78;5060610;28;20195;-73
2024/01/04 06:55:18;;;;;;;8.33;6.20;;;;;;;7.15;68.51;94159.00;5058215;28;20213;-73
2024/01/04 06:57:44;;;;;;;10.23;6.87;;;;;;;7.21;68.25;94166.22;5063445;28;20224;-71
2024/01/04 07:00:09;;;;;;;9.63;6.50;;;;;;;7.36;68.23;94174.38;5067746;28;20220;-73
2024/01/04 07:02:36;;;;;;;8.73;6.30;;;;;;;7.42;67.95;94172.94;5073960;28;20224;-75
2024/01/04 07:05:05;;;;;;;7.37;6.20;;;;;;;7.59;67.19;94169.47;5066981;28;20193;-75
2024/01/04 07:07:32;;;;;;;9.00;6.53;;;;;;;7.44;66.76;94176.22;5071885;28;20176;-75
2024/01/04 07:09:57;;;;;;;10.40;6.80;;;;;;;7.05;68.33;94177.38;5071060;28;20294;-75
2024/01/04 07:12:25;;;;;;;7.93;6.27;;;;;;;7.16;68.43;94188.59;5065940;28;20221;-76
2024/01/04 07:14:50;;;;;;;9.33;6.80;;;;;;;7.17;68.36;94183.22;5074352;28;20217;-75
2024/01/04 07:17:16;;;;;;;10.23;6.57;;;;;;;7.31;68.10;94181.84;5076594;28;20263;-74
2024/01/04 07:19:45;;;;;;;9.33;6.67;;;;;;;7.38;67.60;94182.88;5070302;28;20177;-75
2024/01/04 07:22:11;;;;;;;9.00;6.67;;;;;;;7.45;67.31;94183.91;5075824;28;20221;-77
2024/01/04 07:24:37;;;;;;;10.67;6.90;;;;;;;7.50;67.47;94194.72;5075507;28;20225;-73
2024/01/04 07:27:03;;;;;;;16.40;6.83;;;;;;;7.56;67.27;94192.47;5075311;28;20267;-70
2024/01/04 07:29:30;;;;;;;10.23;6.00;;;;;;;7.65;67.02;94175.88;5070591;28;20255;-72
2024/01/04 07:31:55;;;;;;;7.57;6.30;;;;;;;7.77;67.30;94177.22;5065885;28;20218;-74
2024/01/04 07:34:22;;;;;;;8.93;6.50;;;;;;;7.89;66.22;94162.91;5067970;28;20181;-73
2024/01/04 07:36:47;;;;;;;8.57;6.10;;;;;;;7.94;66.20;94144.94;5074734;28;20216;-76
2024/01/04 07:39:14;;;;;;;8.93;6.07;;;;;;;8.03;66.02;94135.31;5070782;28;20224;-75
2024/01/04 07:41:41;;;;;;;9.10;6.53;;;;;;;8.02;66.19;94128.44;5065187;28;20243;-77
2024/01/04 07:44:07;;;;;;;8.57;6.17;;;;;;;8.01;66.05;94126.78;5071301;28;20181;-74
2024/01/04 07:46:32;;;;;;;11.47;6.90;;;;;;;8.10;66.28;94135.50;5072889;28;20231;-72
2024/01/04 07:48:58;;;;;;;12.73;8.20;;;;;;;8.17;66.30;94126.84;5070265;28;20217;-75
2024/01/04 07:51:24;;;;;;;12.23;8.23;;;;;;;8.19;66.51;94118.84;5069316;28;20255;-70
2024/01/04 07:53:49;;;;;;;12.73;7.80;;;;;;;8.35;66.10;94118.88;5072706;28;20492;-70
2024/01/04 07:56:14;;;;;;;11.83;7.87;;;;;;;8.43;66.21;94120.75;5071583;28;20224;-70
2024/01/04 07:58:40;;;;;;;13.23;7.87;;;;;;;8.38;65.74;94133.47;5069121;28;20200;-71
2024/01/04 08:01:06;;;;;;;12.67;7.77;;;;;;;8.44;65.86;94126.78;5068839;28;20228;-70
2024/01/04 08:03:32;;;;;;;16.27;8.10;;;;;;;8.48;65.88;94112.41;5073448;28;20224;-73
2024/01/04 08:05:57;;;;;;;15.13;9.43;;;;;;;8.51;65.87;94096.34;5070664;28;20223;-73
2024/01/04 08:08:22;;;;;;;14.30;8.80;;;;;;;8.60;65.59;94088.31;5069987;28;20219;-72
2024/01/04 08:10:48;;;;;;;14.33;9.57;;;;;;;8.69;65.49;94104.91;5072300;28;20189;-74
2024/01/04 08:13:16;;;;;;;11.57;7.90;;;;;;;8.71;65.43;94092.44;5070661;28;20224;-72
2024/01/04 08:15:42;;;;;;;9.63;8.10;;;;;;;8.77;65.27;94097.03;5069595;28;20209;-73
2024/01/04 08:18:07;;;;;;;14.50;8.30;;;;;;;8.82;65.10;94092.13;5069006;28;20267;-71
2024/01/04 08:20:33;;;;;;;11.47;7.63;;;;;;;8.96;64.42;94101.13;5073344;28;20236;-73
2024/01/04 08:22:59;;;;;;;13.73;8.00;;;;;;;8.86;64.22;94094.41;5071655;28;20208;-72
2024/01/04 08:25:24;;;;;;;10.50;7.77;;;;;;;8.89;64.31;94101.94;5074184;28;20273;-77
2024/01/04 08:27:49;;;;;;;11.27;7.47;;;;;;;8.98;64.17;94112.28;5076712;28;20295;-74
2024/01/04 08:30:15;;;;;;;11.10;7.90;;;;;;;9.04;64.19;94097.69;5067348;28;20224;-70
2024/01/04 08:32:41;;;;;;;7.73;6.67;;;;;;;9.12;63.46;94089.81;5071854;28;20214;-74
2024/01/04 08:35:07;;;;;;;9.30;7.20;;;;;;;9.21;63.41;94098.50;5065535;28;20244;-75
2024/01/04 08:37:32;;;;;;;10.50;8.33;;;;;;;9.23;63.34;94096.53;5071596;28;20546;-77
2024/01/04 08:39:58;;;;;;;11.77;9.70;;;;;;;9.26;63.68;94090.94;5073815;28;20221;-76
2024/01/04 08:42:23;;;;;;;15.43;9.33;;;;;;;9.21;63.85;94099.31;5075273;28;20265;-74
2024/01/04 08:44:49;;;;;;;14.57;10.60;;;;;;;9.11;63.84;94085.53;5066312;28;20250;-75
2024/01/04 08:47:14;;;;;;;17.67;11.20;;;;;;;9.07;63.98;94084.25;5069230;28;20271;-74
2024/01/04 08:49:39;;;;;;;16.47;12.70;;;;;;;9.30;63.47;94088.78;5067099;28;20188;-76
2024/01/04 08:52:06;;;;;;;20.77;15.77;;;;;;;9.53;61.98;94092.38;5068734;28;20224;-76
2024/01/04 08:54:31;;;;;;;20.50;17.93;;;;;;;9.14;62.53;94081.78;5064882;28;20226;-75
2024/01/04 08:56:56;;;;;;;21.83;17.27;;;;;;;9.19;62.85;94082.09;5072408;28;20225;-74
2024/01/04 08:59:22;;;;;;;26.63;19.83;;;;;;;9.31;62.02;94077.34;5070889;28;20243;-80
2024/01/04 09:01:48;;;;;;;26.53;19.27;;;;;;;9.57;61.53;94069.22;5071807;28;20177;-80
2024/01/04 09:04:14;;;;;;;24.80;19.10;;;;;;;9.72;60.82;94075.41;5070986;28;20232;-75
2024/01/04 09:06:40;;;;;;;22.00;18.07;;;;;;;9.64;61.18;94080.69;5068952;28;20328;-73
2024/01/04 09:09:07;;;;;;;20.83;15.47;;;;;;;9.61;60.37;94084.47;5070565;28;20240;-70
2024/01/04 09:11:38;;;;;;;20.40;15.90;;;;;;;9.69;60.27;94071.31;5071722;28;20555;-71
2024/01/04 09:14:07;;;;;;;21.37;13.20;;;;;;;9.65;59.96;94062.16;5071134;28;20195;-72
2024/01/04 09:16:34;;;;;;;21.80;12.37;;;;;;;9.75;60.06;94061.13;5067572;28;20176;-72
2024/01/04 09:19:00;;;;;;;17.23;10.57;;;;;;;9.72;60.15;94049.97;5069514;28;20311;-73
2024/01/04 09:21:25;;;;;;;14.03;9.00;;;;;;;9.85;59.78;94049.44;5069578;28;20284;-73
2024/01/04 09:23:52;;;;;;;11.57;8.13;;;;;;;9.77;59.85;94031.09;5069902;28;20219;-70
2024/01/04 09:26:18;;;;;;;13.47;9.37;;;;;;;9.87;59.85;94047.47;5069257;28;20220;-73
2024/01/04 09:28:43;;;;;;;10.63;9.27;;;;;;;9.99;59.65;94045.25;5069904;28;20177;-73
2024/01/04 09:31:09;;;;;;;14.07;8.73;;;;;;;10.03;59.35;94054.44;5068251;28;20248;-73
2024/01/04 09:33:35;;;;;;;9.60;7.60;;;;;;;10.11;58.72;94054.41;5070554;28;20227;-72
2024/01/04 09:36:00;;;;;;;15.10;7.93;;;;;;;10.10;59.07;94029.13;5071409;28;20216;-72
2024/01/04 09:38:27;;;;;;;10.93;7.03;;;;;;;10.25;58.48;94039.72;5069185;28;20308;-72
2024/01/04 09:41:15;;;;;;;15.23;7.57;;;;;;;10.38;58.09;94036.53;5070118;28;20181;-72
2024/01/04 09:43:41;;;;;;;9.60;6.60;;;;;;;10.49;57.39;94027.44;5071854;28;20184;-73
2024/01/04 09:46:12;;;;;;;10.43;6.00;;;;;;;10.62;57.12;94040.81;5068721;28;20216;-71
2024/01/04 09:48:42;;;;;;;11.07;5.73;;;;;;;10.61;56.91;94023.38;5067565;28;20220;-69
2024/01/04 09:51:08;;;;;;;8.97;5.10;;;;;;;10.70;56.32;94018.91;5068110;28;20236;-74
2024/01/04 09:53:35;;;;;;;8.27;4.63;;;;;;;10.69;56.32;94019.88;5067306;28;20219;-72
2024/01/04 09:56:04;;;;;;;8.67;4.70;;;;;;;10.81;56.20;94003.50;5067709;28;20307;-74
2024/01/04 09:58:29;;;;;;;10.27;5.13;;;;;;;10.90;56.03;94008.69;5068996;28;20258;-73
2024/01/04 10:00:57;;;;;;;7.40;4.40;;;;;;;10.84;55.72;93999.69;5066026;28;20252;-72
2024/01/04 10:03:25;;;;;;;6.97;4.90;;;;;;;10.91;55.45;94008.53;5066683;28;20240;-73
2024/01/04 10:05:51;;;;;;;8.07;4.57;;;;;;;10.88;56.00;94022.03;5070560;28;20515;-74
2024/01/04 10:08:22;;;;;;;8.40;4.72;;;;;;;11.03;55.65;94007.06;5070310;28;20216;-75
2024/01/04 10:10:50;;;;;;;7.13;4.05;;;;;;;11.20;54.55;93981.44;5070732;28;20312;-71
2024/01/04 10:13:16;;;;;;;6.50;3.47;;;;;;;11.19;54.46;93989.50;5069452;28;20229;-73
2024/01/04 10:15:43;;;;;;;3.92;3.50;;;;;;;11.50;53.71;93980.63;5066069;28;20774;-72
2024/01/04 10:18:12;;;;;;;6.38;3.47;;;;;;;11.33;54.05;93970.25;5064259;28;20267;-72
2024/01/04 10:20:37;;;;;;;5.85;4.05;;;;;;;11.39;53.93;93942.41;5072628;28;20223;-71
2024/01/04 10:23:04;;;;;;;10.68;4.78;;;;;;;11.65;53.37;93936.66;5070989;28;20185;-71
2024/01/04 10:25:29;;;;;;;6.25;4.57;;;;;;;11.76;54.13;93936.19;5070795;28;20216;-69
2024/01/04 10:27:59;;;;;;;5.22;4.10;;;;;;;12.00;53.01;93932.44;5068572;28;20595;-70
2024/01/04 10:30:26;;;;;;;6.05;4.18;;;;;;;12.22;52.66;93917.44;5070049;28;20237;-73
2024/01/04 10:32:51;;;;;;;6.43;4.43;;;;;;;12.51;52.71;93895.38;5073136;28;20219;-79
2024/01/04 10:35:27;;;;;;;6.85;4.30;;;;;;;12.73;51.33;93901.44;5069666;28;20213;-72
2024/01/04 10:38:00;;;;;;;6.32;4.72;;;;;;;12.78;51.42;93906.94;5069899;28;20239;-69
2024/01/04 10:40:25;;;;;;;6.40;3.92;;;;;;;12.82;50.81;93922.38;5067349;28;20209;-69
2024/01/04 10:42:54;;;;;;;5.97;4.00;;;;;;;12.78;51.04;93922.78;5070318;28;20285;-68
2024/01/04 10:45:24;;;;;;;6.10;4.20;;;;;;;12.92;51.46;93901.75;5074462;28;20301;-70
2024/01/04 10:47:49;;;;;;;6.85;3.80;;;;;;;12.91;50.38;93897.47;5072615;28;20301;-69
2024/01/04 10:50:15;;;;;;;7.85;4.03;;;;;;;12.93;49.77;93875.16;5073720;28;20237;-68
2024/01/04 10:52:46;;;;;;;4.05;3.65;;;;;;;13.22;48.99;93882.03;5075262;28;20213;-75
2024/01/04 10:55:12;;;;;;;3.80;2.30;;;;;;;13.54;46.27;93871.84;5067929;28;20227;-77
2024/01/04 10:57:39;;;;;;;4.18;1.65;;;;;;;13.76;44.61;93866.41;5071676;28;20565;-72
2024/01/04 11:00:07;;;;;;;6.72;3.60;;;;;;;13.83;45.11;93867.25;5074804;28;20217;-74
2024/01/04 11:02:35;;;;;;;5.30;2.00;;;;;;;13.78;43.56;93861.75;5071302;28;20239;-76
2024/01/04 11:05:02;;;;;;;4.10;3.70;;;;;;;13.73;46.53;93867.63;5073681;28;20189;-77
2024/01/04 11:07:28;;;;;;;7.38;4.07;;;;;;;13.68;47.87;93876.16;5073402;28;20253;-72
2024/01/04 11:09:54;;;;;;;5.75;4.15;;;;;;;13.75;47.60;93860.31;5076316;28;20251;-75
2024/01/04 11:12:20;;;;;;;6.15;3.70;;;;;;;13.71;46.82;93848.50;5072119;28;20271;-75
2024/01/04 11:14:45;;;;;;;5.32;4.13;;;;;;;13.59;47.85;93843.00;5074546;28;20213;-78
2024/01/04 11:17:33;;;;;;;12.57;4.03;;;;;;;13.72;47.92;93839.59;5069330;28;20318;-78
2024/01/04 11:20:21;;;;;;;7.57;4.00;;;;;;;13.76;48.31;93824.94;5069459;28;20290;-75
2024/01/04 11:23:16;;;;;;;6.22;4.13;;;;;;;13.85;48.74;93807.91;5031366;28;20216;-73
2024/01/04 11:26:00;;;;;;;7.47;4.32;;;;;;;14.21;47.39;93805.91;5055702;28;20213;-74
2024/01/04 11:28:27;;;;;;;10.73;3.80;;;;;;;14.20;46.47;93805.09;5061636;28;20209;-78
2024/01/04 11:30:53;;;;;;;4.07;2.83;;;;;;;14.30;45.11;93817.88;5038375;28;20308;-77
2024/01/04 11:33:21;;;;;;;3.88;2.60;;;;;;;14.12;43.90;93803.47;5051723;28;20308;-77
2024/01/04 11:35:51;;;;;;;8.68;3.13;;;;;;;14.12;43.68;93798.16;5068008;28;20274;-73